Time;durP1;ratioP1;P1;durP2;ratioP2;P2;SDS_P1;SDS_P2;PMS_P1;PMS_P2;Temp;Humidity;BMP_temperature;BMP_pressure;BME280_temperature;BME280_humidity;BME280_pressure;Samples;Min_cycle;Max_cycle;Signal;HPM_P1;HPM_P2
2022/05/26 00:00:58;;;;;;;2.13;1.90;;;14.60;78.40;;;;;;5050570;28;20399;-68
2022/05/26 00:03:24;;;;;;;2.63;1.80;;;14.60;78.30;;;;;;5052360;28;20036;-68
2022/05/26 00:05:49;;;;;;;3.35;2.17;;;14.60;78.40;;;;;;5053285;28;20051;-68
2022/05/26 00:08:15;;;;;;;3.58;1.70;;;14.60;78.30;;;;;;5050772;28;20083;-68
2022/05/26 00:10:40;;;;;;;3.13;1.73;;;14.60;78.40;;;;;;5047419;28;20527;-69
2022/05/26 00:13:06;;;;;;;2.00;1.80;;;14.60;78.30;;;;;;5048085;28;20048;-68
2022/05/26 00:15:32;;;;;;;1.95;1.83;;;14.60;78.20;;;;;;5052135;28;20492;-69
2022/05/26 00:17:58;;;;;;;2.67;1.70;;;14.50;78.10;;;;;;5052537;28;20152;-69
2022/05/26 00:20:24;;;;;;;6.63;2.03;;;14.40;78.00;;;;;;5050989;28;20040;-68
2022/05/26 00:22:49;;;;;;;2.20;2.00;;;14.40;78.20;;;;;;5052853;28;20033;-68
2022/05/26 00:25:15;;;;;;;2.35;1.77;;;14.40;78.50;;;;;;5051807;28;20415;-68
2022/05/26 00:27:41;;;;;;;2.45;1.83;;;14.40;78.40;;;;;;5048912;28;20087;-69
2022/05/26 00:30:07;;;;;;;2.22;1.83;;;14.40;78.50;;;;;;5047337;28;20047;-68
2022/05/26 00:32:33;;;;;;;1.73;1.45;;;14.40;78.40;;;;;;5047288;28;20025;-69
2022/05/26 00:34:59;;;;;;;1.83;1.50;;;14.40;78.20;;;;;;5053503;28;20407;-69
2022/05/26 00:37:24;;;;;;;1.80;1.30;;;14.40;78.00;;;;;;5050253;28;20151;-68
2022/05/26 00:39:50;;;;;;;1.50;1.40;;;14.30;77.80;;;;;;5049518;28;20041;-68
2022/05/26 00:42:15;;;;;;;2.55;1.15;;;14.40;77.80;;;;;;5049065;28;20408;-69
2022/05/26 00:44:42;;;;;;;4.43;1.20;;;14.30;77.60;;;;;;5050309;28;20260;-67
2022/05/26 00:47:28;;;;;;;1.40;1.30;;;14.30;77.60;;;;;;5052022;28;20029;-69
2022/05/26 00:50:04;;;;;;;2.45;1.30;;;14.30;77.50;;;;;;5050222;28;20057;-69
2022/05/26 00:52:45;;;;;;;1.70;1.48;;;14.30;77.30;;;;;;5048199;28;20221;-69
2022/05/26 00:55:18;;;;;;;1.70;1.38;;;14.30;77.60;;;;;;5047873;28;20064;-69
2022/05/26 00:57:50;;;;;;;1.40;1.20;;;14.30;77.50;;;;;;5050405;28;20041;-68
2022/05/26 01:00:23;;;;;;;1.33;1.10;;;14.30;78.20;;;;;;5050237;28;20036;-68
2022/05/26 01:03:13;;;;;;;1.60;1.25;;;14.20;77.40;;;;;;5054231;28;20422;-68
2022/05/26 01:05:54;;;;;;;3.22;1.17;;;14.20;77.30;;;;;;5044895;28;20112;-69
2022/05/26 01:08:40;;;;;;;1.55;1.10;;;14.10;77.50;;;;;;5051547;28;21168;-68
2022/05/26 01:11:07;;;;;;;1.30;1.20;;;14.10;77.50;;;;;;5045090;28;20048;-68
2022/05/26 01:13:39;;;;;;;5.00;1.20;;;14.10;77.70;;;;;;5049105;28;21005;-67
2022/05/26 01:16:13;;;;;;;2.10;0.98;;;14.00;77.70;;;;;;5058914;28;20482;-68
2022/05/26 01:19:17;;;;;;;1.80;1.33;;;14.10;77.50;;;;;;5050349;28;20320;-68
2022/05/26 01:21:49;;;;;;;1.42;1.10;;;14.00;77.20;;;;;;5037908;28;20029;-69
2022/05/26 01:24:53;;;;;;;1.83;1.30;;;14.10;77.70;;;;;;5048225;28;20029;-67
2022/05/26 01:27:27;;;;;;;1.88;1.38;;;14.10;77.50;;;;;;4991811;28;20584;-69
2022/05/26 01:30:21;;;;;;;2.70;1.52;;;14.10;77.50;;;;;;5044305;28;20033;-68
2022/05/26 01:33:45;;;;;;;2.25;1.50;;;14.00;77.40;;;;;;5047066;28;20045;-68
2022/05/26 01:36:25;;;;;;;2.92;1.30;;;13.90;77.30;;;;;;5030805;28;20029;-68
2022/05/26 01:39:01;;;;;;;3.10;1.33;;;13.90;77.40;;;;;;5021371;28;20091;-69
2022/05/26 01:41:48;;;;;;;2.17;1.27;;;13.90;77.40;;;;;;5042955;28;20527;-68
2022/05/26 01:44:36;;;;;;;1.75;1.30;;;13.80;77.50;;;;;;5051020;28;20041;-68
2022/05/26 01:47:14;;;;;;;1.50;1.40;;;13.70;77.70;;;;;;5045596;28;20032;-68
2022/05/26 01:49:44;;;;;;;1.55;0.80;;;13.70;77.70;;;;;;5048880;28;20432;-68
2022/05/26 01:52:27;;;;;;;0.98;0.90;;;13.70;77.70;;;;;;5048406;28;20648;-68
2022/05/26 01:55:09;;;;;;;1.38;0.90;;;13.60;77.80;;;;;;5050706;28;20029;-68
2022/05/26 01:57:38;;;;;;;1.40;0.68;;;13.60;77.50;;;;;;5047719;28;20029;-69
2022/05/26 02:00:12;;;;;;;0.57;0.57;;;13.60;77.40;;;;;;5049845;28;20025;-68
2022/05/26 02:02:52;;;;;;;1.67;0.82;;;13.50;77.40;;;;;;5053072;28;20035;-68
2022/05/26 02:05:28;;;;;;;1.92;0.77;;;13.50;77.60;;;;;;5056243;28;20040;-69
2022/05/26 02:08:09;;;;;;;2.60;0.85;;;13.40;78.00;;;;;;5048658;28;20082;-68
2022/05/26 02:11:00;;;;;;;1.15;0.88;;;13.40;77.90;;;;;;5045317;28;20032;-65
2022/05/26 02:13:29;;;;;;;1.10;0.90;;;13.30;77.80;;;;;;5042379;28;20047;-69
2022/05/26 02:16:02;;;;;;;3.00;1.08;;;13.30;78.00;;;;;;5046946;28;20411;-67
2022/05/26 02:18:34;;;;;;;1.67;1.02;;;13.20;78.10;;;;;;5048074;28;20056;-69
2022/05/26 02:21:16;;;;;;;3.42;0.93;;;13.20;78.30;;;;;;5049009;28;20116;-69
2022/05/26 02:23:58;;;;;;;0.93;0.90;;;13.10;78.80;;;;;;5048212;28;20128;-69
2022/05/26 02:26:24;;;;;;;2.30;1.10;;;13.10;79.10;;;;;;5045146;28;20121;-67
2022/05/26 02:31:34;;;;;;;3.17;1.13;;;13.00;79.10;;;;;;5046620;28;20039;-67
2022/05/26 02:34:02;;;;;;;2.30;1.15;;;13.00;79.20;;;;;;5050243;28;20225;-68
2022/05/26 02:36:31;;;;;;;1.05;0.93;;;13.00;79.20;;;;;;5049170;28;20121;-68
2022/05/26 02:38:56;;;;;;;1.73;0.95;;;13.00;79.30;;;;;;5050931;28;20029;-69
2022/05/26 02:41:24;;;;;;;2.10;1.08;;;13.00;79.30;;;;;;5047164;28;20040;-68
2022/05/26 02:43:51;;;;;;;2.35;0.95;;;13.00;79.40;;;;;;5044821;28;20323;-68
2022/05/26 02:46:55;;;;;;;2.83;1.20;;;12.90;79.60;;;;;;5046419;28;20497;-70
2022/05/26 02:49:48;;;;;;;1.88;1.00;;;12.90;80.30;;;;;;5047484;28;20025;-68
2022/05/26 02:52:20;;;;;;;2.28;1.20;;;12.90;80.30;;;;;;5045064;28;20037;-65
2022/05/26 02:55:23;;;;;;;3.05;0.80;;;13.00;80.50;;;;;;5049050;28;20059;-68
2022/05/26 02:58:11;;;;;;;1.65;1.00;;;13.00;80.80;;;;;;5045141;28;20033;-66
2022/05/26 03:01:01;;;;;;;1.73;1.00;;;13.10;80.70;;;;;;5040383;28;21517;-69
2022/05/26 03:03:55;;;;;;;1.85;1.05;;;13.10;80.50;;;;;;5052022;28;20063;-68
2022/05/26 03:06:24;;;;;;;5.13;1.13;;;13.20;80.60;;;;;;5046645;28;20033;-69
2022/05/26 03:08:52;;;;;;;1.20;0.98;;;13.30;80.60;;;;;;5050894;28;20037;-69
2022/05/26 03:11:21;;;;;;;1.23;1.00;;;13.30;80.60;;;;;;5045831;28;20029;-69
2022/05/26 03:13:46;;;;;;;2.80;1.23;;;13.30;80.50;;;;;;5044026;28;20158;-68
2022/05/26 03:16:12;;;;;;;2.75;1.35;;;13.40;80.50;;;;;;5047457;28;20070;-68
2022/05/26 03:18:38;;;;;;;3.40;1.48;;;13.40;80.60;;;;;;5048327;28;20451;-69
2022/05/26 03:21:06;;;;;;;4.75;1.58;;;13.40;80.50;;;;;;5050337;28;20033;-68
2022/05/26 03:23:32;;;;;;;1.60;1.48;;;13.50;80.50;;;;;;5048347;28;20446;-68
2022/05/26 03:25:59;;;;;;;2.55;1.80;;;13.40;80.50;;;;;;5047066;28;20033;-67
2022/05/26 03:28:27;;;;;;;3.47;1.38;;;13.50;80.50;;;;;;5049448;28;20086;-69
2022/05/26 03:30:54;;;;;;;3.20;1.77;;;13.50;80.60;;;;;;5046798;28;20056;-68
2022/05/26 03:33:20;;;;;;;4.03;1.92;;;13.50;80.50;;;;;;5046919;28;20041;-68
2022/05/26 03:41:17;;;;;;;2.38;2.15;;;13.50;80.30;;;;;;5050208;28;20592;-67
2022/05/26 03:43:51;;;;;;;2.42;1.73;;;13.60;80.30;;;;;;5043150;28;20040;-69
2022/05/26 03:46:17;;;;;;;3.38;1.73;;;13.60;81.20;;;;;;5045022;28;20029;-69
2022/05/26 03:48:43;;;;;;;1.90;1.70;;;13.50;80.40;;;;;;5046791;28;20052;-69
2022/05/26 03:51:09;;;;;;;1.75;1.65;;;13.50;80.50;;;;;;5045922;28;20041;-68
2022/05/26 03:53:35;;;;;;;2.47;1.70;;;13.50;80.80;;;;;;5048789;28;20079;-69
2022/05/26 03:56:02;;;;;;;1.90;1.80;;;13.50;81.00;;;;;;5049368;28;20033;-69
2022/05/26 03:58:28;;;;;;;3.80;1.95;;;13.60;81.20;;;;;;5059243;28;20029;-68
2022/05/26 04:00:53;;;;;;;1.98;1.80;;;13.60;81.30;;;;;;5045875;28;20040;-68
2022/05/26 04:03:19;;;;;;;2.00;1.75;;;13.60;81.30;;;;;;5045884;28;20028;-68
2022/05/26 04:05:45;;;;;;;1.70;1.58;;;13.60;81.20;;;;;;5048387;28;20476;-68
2022/05/26 04:08:11;;;;;;;1.75;1.65;;;13.60;81.20;;;;;;5048190;28;20037;-67
2022/05/26 04:10:37;;;;;;;1.90;1.50;;;13.70;81.40;;;;;;5047910;28;20095;-68
2022/05/26 04:13:03;;;;;;;1.60;1.40;;;13.70;81.40;;;;;;5044560;28;21073;-69
2022/05/26 04:15:29;;;;;;;2.35;1.50;;;13.70;81.50;;;;;;5044542;28;20063;-68
2022/05/26 04:17:54;;;;;;;1.30;1.20;;;13.70;81.30;;;;;;5046139;28;20099;-68
2022/05/26 04:20:22;;;;;;;1.27;1.20;;;13.70;81.40;;;;;;5049499;28;20055;-66
2022/05/26 04:22:48;;;;;;;1.90;1.10;;;13.80;81.50;;;;;;5050224;28;20049;-69
2022/05/26 04:25:14;;;;;;;1.83;1.05;;;13.80;81.50;;;;;;5046913;28;22276;-68
2022/05/26 04:27:40;;;;;;;1.65;1.13;;;13.80;81.70;;;;;;5050239;28;20048;-68
2022/05/26 04:30:09;;;;;;;4.30;1.55;;;13.80;81.60;;;;;;5050636;28;20044;-67
2022/05/26 04:32:36;;;;;;;1.52;1.35;;;13.90;81.50;;;;;;5052052;28;20623;-67
2022/05/26 04:35:02;;;;;;;1.42;1.20;;;13.90;81.40;;;;;;5048500;28;20538;-69
2022/05/26 04:37:28;;;;;;;1.55;1.45;;;14.00;81.50;;;;;;5049560;28;20404;-69
2022/05/26 04:39:55;;;;;;;1.80;1.50;;;14.00;81.50;;;;;;5046831;28;20032;-67
2022/05/26 04:42:23;;;;;;;2.67;1.50;;;14.10;81.50;;;;;;5053625;28;20053;-68
2022/05/26 04:44:49;;;;;;;2.65;1.70;;;14.10;81.50;;;;;;5050855;28;20308;-68
2022/05/26 04:47:17;;;;;;;1.80;1.70;;;14.20;81.30;;;;;;5049290;28;20067;-68
2022/05/26 04:49:43;;;;;;;1.50;1.38;;;14.20;81.50;;;;;;5049734;28;20087;-68
2022/05/26 04:52:11;;;;;;;1.73;1.42;;;14.30;81.40;;;;;;5047442;28;20167;-68
2022/05/26 04:54:38;;;;;;;2.80;1.55;;;14.40;81.20;;;;;;5043888;28;20511;-68
2022/05/26 04:57:06;;;;;;;2.10;1.27;;;14.40;81.20;;;;;;5051400;28;20037;-68
2022/05/26 04:59:33;;;;;;;5.45;1.70;;;14.50;81.10;;;;;;5048515;28;20036;-69
2022/05/26 05:02:00;;;;;;;1.58;1.20;;;14.50;80.90;;;;;;5053881;28;20138;-68
2022/05/26 05:04:27;;;;;;;2.40;1.58;;;14.60;81.70;;;;;;5049239;28;20523;-68
2022/05/26 05:06:54;;;;;;;1.45;1.35;;;14.60;80.40;;;;;;5048788;28;20037;-68
2022/05/26 05:09:21;;;;;;;2.92;1.52;;;14.70;80.40;;;;;;5049830;28;20029;-69
2022/05/26 05:11:47;;;;;;;2.28;1.92;;;14.70;80.40;;;;;;5044512;28;20128;-66
2022/05/26 05:14:13;;;;;;;6.40;4.20;;;14.80;80.60;;;;;;5055664;28;20029;-68
2022/05/26 05:16:42;;;;;;;2.85;1.85;;;14.80;80.20;;;;;;5048628;28;20524;-68
2022/05/26 05:19:12;;;;;;;1.50;1.40;;;14.80;79.80;;;;;;5051859;28;20117;-68
2022/05/26 05:21:42;;;;;;;1.58;1.45;;;14.90;79.40;;;;;;5051673;28;20511;-68
2022/05/26 05:24:16;;;;;;;2.63;2.15;;;15.00;79.60;;;;;;5051339;28;20492;-69
2022/05/26 05:26:45;;;;;;;2.40;2.20;;;15.00;79.20;;;;;;5040283;28;20403;-69
2022/05/26 05:29:14;;;;;;;2.70;2.28;;;15.10;79.20;;;;;;5039325;28;20025;-67
2022/05/26 05:31:46;;;;;;;18.05;11.13;;;15.10;79.10;;;;;;5038272;28;20041;-65
2022/05/26 05:34:27;;;;;;;8.77;6.22;;;15.20;78.90;;;;;;5049839;28;20445;-65
2022/05/26 05:36:53;;;;;;;72.32;39.65;;;15.20;78.40;;;;;;5041797;28;20033;-69
2022/05/26 05:39:19;;;;;;;12.98;9.15;;;15.30;78.60;;;;;;5046142;28;20485;-69
2022/05/26 05:41:45;;;;;;;4.45;3.17;;;15.30;78.20;;;;;;5044568;28;20163;-67
2022/05/26 05:44:11;;;;;;;2.45;1.63;;;15.40;77.90;;;;;;5049903;28;20491;-68
2022/05/26 05:46:54;;;;;;;2.28;2.17;;;15.40;77.70;;;;;;5047802;28;20422;-65
2022/05/26 05:49:26;;;;;;;1.35;1.25;;;15.40;77.20;;;;;;5047138;28;20499;-68
2022/05/26 05:51:53;;;;;;;1.48;1.38;;;15.50;76.50;;;;;;5047536;28;20365;-66
2022/05/26 05:54:19;;;;;;;1.20;1.10;;;15.50;76.70;;;;;;5047983;28;20029;-68
2022/05/26 05:56:46;;;;;;;1.55;0.80;;;15.60;76.80;;;;;;5045007;28;20036;-68
2022/05/26 05:59:12;;;;;;;1.63;0.77;;;15.60;76.60;;;;;;5045807;28;20110;-67
2022/05/26 06:01:38;;;;;;;2.95;0.90;;;15.70;76.50;;;;;;5054657;28;20120;-68
2022/05/26 06:04:04;;;;;;;2.45;0.80;;;15.80;77.00;;;;;;5056654;28;20128;-66
2022/05/26 06:06:41;;;;;;;0.60;0.60;;;15.80;75.90;;;;;;5053469;28;20041;-67
2022/05/26 06:09:09;;;;;;;2.28;0.57;;;15.90;75.20;;;;;;5052300;28;20037;-67
2022/05/26 06:11:35;;;;;;;1.85;0.57;;;15.90;75.60;;;;;;5053635;28;20033;-66
2022/05/26 06:14:02;;;;;;;1.02;0.55;;;16.00;75.60;;;;;;5051138;28;20037;-66
2022/05/26 06:16:29;;;;;;;0.60;0.57;;;16.10;75.60;;;;;;5052855;28;20047;-67
2022/05/26 06:18:55;;;;;;;3.00;0.68;;;16.10;75.20;;;;;;5045008;28;20518;-67
2022/05/26 06:21:21;;;;;;;0.75;0.47;;;16.20;75.20;;;;;;5058032;28;20105;-67
2022/05/26 06:23:48;;;;;;;2.10;0.50;;;16.30;75.10;;;;;;5050810;28;20032;-67
2022/05/26 06:26:14;;;;;;;2.38;0.47;;;16.40;75.70;;;;;;5054552;28;20033;-66
2022/05/26 06:31:24;;;;;;;0.75;0.45;;;16.60;74.30;;;;;;5054292;28;20032;-67
2022/05/26 06:39:26;;;;;;;2.00;0.50;;;16.80;74.10;;;;;;5044663;28;20211;-66
2022/05/26 06:42:07;;;;;;;0.95;0.40;;;16.90;72.90;;;;;;5056447;28;20039;-67
2022/05/26 06:44:44;;;;;;;0.80;0.63;;;17.00;72.60;;;;;;5050511;28;20040;-68
2022/05/26 06:47:16;;;;;;;0.95;0.40;;;17.00;69.60;;;;;;5050594;28;20036;-66
2022/05/26 06:49:42;;;;;;;2.80;0.50;;;17.10;70.20;;;;;;5047855;28;20057;-64
2022/05/26 06:52:09;;;;;;;1.70;0.50;;;17.20;70.30;;;;;;5047199;28;20115;-68
2022/05/26 06:54:38;;;;;;;0.40;0.30;;;17.20;69.90;;;;;;5050207;28;20447;-67
2022/05/26 06:57:05;;;;;;;1.42;0.52;;;17.30;68.70;;;;;;5052466;28;20094;-68
2022/05/26 06:59:31;;;;;;;1.20;0.40;;;17.40;69.50;;;;;;5049445;28;20028;-68
2022/05/26 07:01:56;;;;;;;1.65;0.63;;;17.40;69.70;;;;;;5054487;28;20505;-67
2022/05/26 07:04:22;;;;;;;2.58;0.40;;;17.50;69.10;;;;;;5050262;28;20057;-66
2022/05/26 07:06:53;;;;;;;0.50;0.40;;;17.60;69.00;;;;;;5050886;28;20044;-63
2022/05/26 07:09:19;;;;;;;1.00;0.47;;;17.60;68.50;;;;;;5052640;28;20096;-66
2022/05/26 07:11:45;;;;;;;0.95;0.43;;;17.70;68.80;;;;;;5051013;28;20036;-66
2022/05/26 07:14:12;;;;;;;0.85;0.50;;;17.70;68.50;;;;;;5045673;28;20225;-66
2022/05/26 07:16:38;;;;;;;5.15;0.60;;;17.80;68.00;;;;;;5049025;28;20029;-66
2022/05/26 07:19:04;;;;;;;1.85;0.40;;;17.80;67.80;;;;;;5049437;28;20119;-67
2022/05/26 07:21:30;;;;;;;1.60;0.50;;;17.90;67.10;;;;;;5055485;28;20321;-67
2022/05/26 07:23:56;;;;;;;2.70;0.43;;;17.90;66.70;;;;;;5048697;28;20091;-64
2022/05/26 07:26:24;;;;;;;0.82;0.50;;;18.00;66.60;;;;;;5048589;28;20033;-66
2022/05/26 07:28:51;;;;;;;0.93;0.40;;;18.00;65.70;;;;;;5044555;28;20491;-65
2022/05/26 07:31:18;;;;;;;0.93;0.40;;;18.10;65.50;;;;;;5043022;28;20029;-66
2022/05/26 07:33:43;;;;;;;0.55;0.30;;;18.20;65.90;;;;;;5049986;28;20033;-66
2022/05/26 07:41:16;;;;;;;0.40;0.40;;;18.20;65.70;;;;;;5044876;28;20432;-67
2022/05/26 07:41:40;;;;;;;1.60;0.40;;;18.40;64.60;;;;;;5048422;28;20059;-66
2022/05/26 07:44:06;;;;;;;2.88;0.40;;;18.40;64.40;;;;;;5047959;28;20047;-66
2022/05/26 07:46:31;;;;;;;1.98;0.38;;;18.40;64.30;;;;;;5048147;28;20496;-67
2022/05/26 07:48:57;;;;;;;1.73;0.38;;;18.50;64.30;;;;;;5046495;28;20036;-66
2022/05/26 07:51:23;;;;;;;1.45;0.40;;;18.40;63.50;;;;;;5047869;28;20086;-65
2022/05/26 07:53:49;;;;;;;1.40;0.40;;;18.50;63.60;;;;;;5045823;28;20567;-65
2022/05/26 07:56:15;;;;;;;0.65;0.20;;;18.50;63.40;;;;;;5045884;28;20035;-66
2022/05/26 07:58:40;;;;;;;1.38;0.38;;;18.50;62.90;;;;;;5043100;28;20029;-66
2022/05/26 08:01:07;;;;;;;1.77;0.30;;;18.50;61.60;;;;;;5053372;28;20411;-67
2022/05/26 08:03:34;;;;;;;4.60;0.38;;;18.50;61.50;;;;;;5051442;28;20033;-67
2022/05/26 08:06:00;;;;;;;0.60;0.35;;;18.50;61.00;;;;;;5056104;28;20461;-67
2022/05/26 08:08:26;;;;;;;0.65;0.43;;;18.50;62.20;;;;;;5056472;28;20033;-67
2022/05/26 08:10:52;;;;;;;0.98;0.38;;;18.60;62.00;;;;;;5050319;28;20084;-65
2022/05/26 08:13:19;;;;;;;0.88;0.30;;;18.70;61.90;;;;;;5051815;28;20051;-66
2022/05/26 08:15:46;;;;;;;0.93;0.30;;;18.70;61.80;;;;;;5057255;28;20437;-66
2022/05/26 08:18:12;;;;;;;2.40;0.47;;;18.80;62.40;;;;;;5056444;28;20174;-66
2022/05/26 08:20:38;;;;;;;1.60;0.40;;;18.90;61.60;;;;;;5055551;28;20037;-64
2022/05/26 08:23:04;;;;;;;0.52;0.30;;;19.00;61.40;;;;;;5052508;28;20067;-66
2022/05/26 08:25:30;;;;;;;1.92;0.47;;;19.10;60.80;;;;;;5052952;28;20045;-66
2022/05/26 08:27:56;;;;;;;0.38;0.30;;;19.20;60.50;;;;;;5055089;28;20120;-66
2022/05/26 08:30:21;;;;;;;0.30;0.30;;;19.30;60.50;;;;;;5056476;28;20089;-66
2022/05/26 08:32:51;;;;;;;1.17;0.38;;;19.40;60.80;;;;;;5055851;28;20052;-66
2022/05/26 08:35:17;;;;;;;1.85;0.30;;;19.50;60.10;;;;;;5056258;28;20488;-66
2022/05/26 08:37:42;;;;;;;1.67;0.30;;;19.50;60.50;;;;;;5055230;28;20044;-66
2022/05/26 08:40:15;;;;;;;2.10;0.30;;;19.60;60.60;;;;;;5054541;28;20033;-66
2022/05/26 08:42:41;;;;;;;0.50;0.35;;;19.60;60.00;;;;;;5062909;28;20024;-66
2022/05/26 08:45:12;;;;;;;2.58;0.40;;;19.60;59.50;;;;;;5055903;28;20094;-66
2022/05/26 08:47:46;;;;;;;0.85;0.32;;;19.70;58.60;;;;;;5064635;28;20052;-66
2022/05/26 08:50:21;;;;;;;0.57;0.30;;;19.70;58.30;;;;;;5053786;28;20352;-64
2022/05/26 08:52:47;;;;;;;0.57;0.47;;;19.70;59.10;;;;;;5058253;28;20071;-66
2022/05/26 08:55:15;;;;;;;1.02;0.40;;;19.70;60.00;;;;;;5053486;28;20068;-65
2022/05/26 08:57:41;;;;;;;0.50;0.30;;;19.80;59.40;;;;;;5054588;28;20104;-66
2022/05/26 09:00:18;;;;;;;2.80;0.40;;;19.90;59.50;;;;;;5053385;28;20115;-66
2022/05/26 09:02:44;;;;;;;1.48;0.30;;;20.00;58.00;;;;;;5053406;28;20488;-67
2022/05/26 09:05:18;;;;;;;1.00;0.40;;;20.10;58.20;;;;;;5055911;28;20175;-66
2022/05/26 09:13:53;;;;;;;1.15;0.25;;;20.30;57.30;;;;;;5056372;28;20131;-67
2022/05/26 09:16:20;;;;;;;1.65;0.30;;;20.40;58.00;;;;;;5054775;28;20029;-67
2022/05/26 09:19:11;;;;;;;2.80;0.20;;;20.40;56.70;;;;;;5055490;28;20044;-65
2022/05/26 09:21:37;;;;;;;0.95;0.30;;;20.50;56.10;;;;;;5055475;28;20512;-66
2022/05/26 09:24:25;;;;;;;0.60;0.25;;;20.50;57.30;;;;;;5053588;28;20099;-66
2022/05/26 09:26:55;;;;;;;1.45;0.30;;;20.60;55.50;;;;;;5051464;28;20467;-66
2022/05/26 09:29:27;;;;;;;0.28;0.20;;;20.70;56.40;;;;;;5055984;28;20600;-66
2022/05/26 09:31:54;;;;;;;1.10;0.40;;;20.80;56.20;;;;;;5054320;28;20494;-67
2022/05/26 09:34:32;;;;;;;1.20;0.30;;;20.90;57.00;;;;;;5053921;28;20036;-67
2022/05/26 09:37:03;;;;;;;0.65;0.30;;;21.00;55.50;;;;;;5055149;28;20568;-67
2022/05/26 09:39:39;;;;;;;2.97;0.45;;;21.00;55.20;;;;;;5052090;28;20036;-66
2022/05/26 09:42:16;;;;;;;2.15;1.45;;;21.10;55.80;;;;;;5056448;28;20075;-65
2022/05/26 09:44:48;;;;;;;3.30;0.65;;;21.10;54.70;;;;;;5053106;28;20047;-65
2022/05/26 09:47:26;;;;;;;0.80;0.40;;;21.20;55.00;;;;;;5053708;28;20568;-66
2022/05/26 09:49:54;;;;;;;0.52;0.40;;;21.30;55.30;;;;;;5054401;28;20040;-67
2022/05/26 09:52:23;;;;;;;1.45;0.22;;;21.30;56.50;;;;;;5052451;28;20033;-67
2022/05/26 09:55:06;;;;;;;0.45;0.20;;;21.40;56.20;;;;;;5053820;28;20393;-66
2022/05/26 09:57:32;;;;;;;0.52;0.20;;;21.50;54.80;;;;;;5054972;28;20033;-67
2022/05/26 09:59:57;;;;;;;0.20;0.20;;;21.60;55.30;;;;;;5054884;28;20368;-66
2022/05/26 10:02:34;;;;;;;0.75;0.25;;;21.60;55.40;;;;;;5055336;28;20048;-67
2022/05/26 10:05:02;;;;;;;2.38;0.57;;;21.60;55.20;;;;;;5057244;28;20119;-67
2022/05/26 10:07:49;;;;;;;2.75;0.20;;;21.70;53.70;;;;;;5056551;28;20029;-67
2022/05/26 10:10:14;;;;;;;0.43;0.30;;;21.70;50.80;;;;;;5055156;28;20040;-67
2022/05/26 10:12:43;;;;;;;1.08;0.40;;;21.80;53.50;;;;;;5047606;28;20385;-66
2022/05/26 10:15:30;;;;;;;3.17;0.30;;;21.80;53.40;;;;;;5053291;28;20025;-66
2022/05/26 10:18:22;;;;;;;1.98;0.30;;;21.80;50.80;;;;;;5055183;28;20503;-67
2022/05/26 10:21:25;;;;;;;1.10;0.30;;;21.80;52.10;;;;;;5052568;28;20068;-67
2022/05/26 10:23:57;;;;;;;1.10;0.30;;;21.80;51.80;;;;;;5049279;28;20029;-67
2022/05/26 10:26:46;;;;;;;1.10;0.40;;;21.80;52.20;;;;;;5049138;28;20309;-67
2022/05/26 10:29:31;;;;;;;0.65;0.30;;;21.80;53.40;;;;;;5053975;28;20025;-66
2022/05/26 10:32:18;;;;;;;1.27;0.40;;;21.80;51.50;;;;;;5049971;28;20029;-67
2022/05/26 10:34:47;;;;;;;0.95;0.30;;;21.90;53.30;;;;;;5053555;28;20286;-67
2022/05/26 10:37:27;;;;;;;0.57;0.30;;;21.90;53.40;;;;;;5051555;28;20039;-66
2022/05/26 10:40:15;;;;;;;0.50;0.20;;;21.90;52.50;;;;;;5054784;28;20056;-67
2022/05/26 10:43:09;;;;;;;0.65;0.28;;;22.00;52.30;;;;;;5054457;28;20040;-66
2022/05/26 10:45:47;;;;;;;0.70;0.30;;;22.00;52.50;;;;;;5051371;28;20438;-67
2022/05/26 10:48:31;;;;;;;0.30;0.20;;;22.00;52.20;;;;;;5053114;28;20056;-67
2022/05/26 10:51:08;;;;;;;1.15;0.40;;;22.10;52.10;;;;;;5051461;28;20044;-67
2022/05/26 10:54:00;;;;;;;0.40;0.20;;;22.10;52.60;;;;;;5052727;28;20044;-66
2022/05/26 10:56:28;;;;;;;0.85;0.20;;;22.10;51.10;;;;;;5050535;28;20068;-67
2022/05/26 10:59:20;;;;;;;0.40;0.30;;;22.10;53.40;;;;;;5051390;28;20033;-66
2022/05/26 11:01:56;;;;;;;0.77;0.30;;;22.20;51.90;;;;;;5043069;28;20534;-66
2022/05/26 11:04:34;;;;;;;1.48;0.35;;;22.10;50.80;;;;;;5053217;28;20032;-66
2022/05/26 11:07:05;;;;;;;0.65;0.30;;;22.10;50.30;;;;;;5055088;28;20029;-67
2022/05/26 11:09:47;;;;;;;0.82;0.20;;;22.10;52.00;;;;;;5051493;28;20039;-67
2022/05/26 11:12:30;;;;;;;0.45;0.20;;;22.20;51.90;;;;;;5046665;28;20086;-67
2022/05/26 11:18:17;;;;;;;0.88;0.20;;;22.30;51.60;;;;;;5052813;28;20506;-67
2022/05/26 11:20:50;;;;;;;0.45;0.38;;;22.40;49.10;;;;;;5053198;28;20033;-67
2022/05/26 11:23:17;;;;;;;1.35;0.47;;;22.40;49.90;;;;;;5051994;28;20487;-67
2022/05/26 11:25:54;;;;;;;1.10;0.50;;;22.30;50.00;;;;;;5052856;28;20033;-67
2022/05/26 11:28:34;;;;;;;1.35;0.40;;;22.20;49.20;;;;;;5050384;28;20407;-67
2022/05/26 11:37:17;;;;;;;0.95;0.43;;;21.80;50.10;;;;;;5058289;28;20046;-67
2022/05/26 11:39:45;;;;;;;1.38;0.30;;;21.80;52.90;;;;;;5055406;28;20043;-67
2022/05/26 11:42:38;;;;;;;0.73;0.30;;;21.80;52.30;;;;;;5054773;28;20557;-66
2022/05/26 11:45:45;;;;;;;0.47;0.30;;;21.90;51.20;;;;;;5056771;28;20037;-67
2022/05/26 11:48:32;;;;;;;1.40;0.40;;;22.00;50.60;;;;;;5050992;28;20048;-67
2022/05/26 11:51:25;;;;;;;0.20;0.20;;;22.00;52.00;;;;;;5058743;28;20108;-67
2022/05/26 11:53:51;;;;;;;1.20;0.30;;;22.20;50.90;;;;;;5055698;28;20036;-67
2022/05/26 11:56:26;;;;;;;;;;;;;;;;;;;;;
2022/05/26 11:59:28;;;;;;;1.38;0.20;;;22.30;52.00;;;;;;5052759;28;20109;-66
2022/05/26 12:02:00;;;;;;;0.75;0.20;;;22.40;51.10;;;;;;5057200;28;20693;-67
2022/05/26 12:04:32;;;;;;;1.42;0.30;;;22.40;51.80;;;;;;5054527;28;20033;-67
2022/05/26 12:07:23;;;;;;;0.75;0.25;;;22.50;51.80;;;;;;5056691;28;20496;-67
2022/05/26 12:09:52;;;;;;;0.77;0.20;;;22.50;50.80;;;;;;5055388;28;20047;-67
2022/05/26 12:12:18;;;;;;;0.45;0.20;;;22.50;50.80;;;;;;5054648;28;20578;-67
2022/05/26 12:14:46;;;;;;;0.20;0.20;;;22.60;51.30;;;;;;5052071;28;20712;-67
2022/05/26 12:17:30;;;;;;;0.63;0.20;;;22.60;50.30;;;;;;5056364;28;20099;-65
2022/05/26 12:20:16;;;;;;;1.40;0.30;;;22.60;50.00;;;;;;5055045;28;20042;-67
2022/05/26 12:23:04;;;;;;;1.50;0.20;;;22.60;49.90;;;;;;5057338;28;20052;-66
2022/05/26 12:25:32;;;;;;;0.38;0.30;;;22.60;49.80;;;;;;5053644;28;20037;-67
2022/05/26 12:28:03;;;;;;;1.05;0.20;;;22.70;50.90;;;;;;5055183;28;20044;-67
2022/05/26 12:30:32;;;;;;;0.90;0.25;;;22.70;51.20;;;;;;5051359;28;20059;-68
2022/05/26 12:33:00;;;;;;;0.50;0.28;;;22.70;51.20;;;;;;5056208;28;20040;-67
2022/05/26 12:36:00;;;;;;;0.20;0.20;;;22.70;51.20;;;;;;5061842;28;20033;-67
2022/05/26 12:38:44;;;;;;;3.15;0.35;;;22.70;50.30;;;;;;5052145;28;20068;-66
2022/05/26 12:41:38;;;;;;;2.00;0.43;;;22.80;50.10;;;;;;5056494;28;20029;-68
2022/05/26 12:44:07;;;;;;;1.10;0.43;;;22.80;50.50;;;;;;5055443;28;20125;-67
2022/05/26 12:46:41;;;;;;;0.63;0.30;;;22.80;50.80;;;;;;5052052;28;20057;-67
2022/05/26 12:49:22;;;;;;;0.65;0.38;;;22.80;50.20;;;;;;5056476;28;20041;-67
2022/05/26 12:52:16;;;;;;;0.50;0.20;;;22.80;49.70;;;;;;5053815;28;20041;-67
2022/05/26 12:54:50;;;;;;;0.88;0.40;;;22.80;49.60;;;;;;5053683;28;20377;-66
2022/05/26 12:57:22;;;;;;;0.40;0.17;;;22.90;50.90;;;;;;5056100;28;20029;-67
2022/05/26 12:59:48;;;;;;;1.95;0.28;;;22.90;49.80;;;;;;5055068;28;20087;-67
2022/05/26 13:02:15;;;;;;;2.60;0.30;;;22.90;50.60;;;;;;5052697;28;20078;-67
2022/05/26 13:04:43;;;;;;;1.17;0.30;;;23.00;50.50;;;;;;5055907;28;20098;-67
2022/05/26 13:07:11;;;;;;;1.23;0.30;;;23.00;49.70;;;;;;5056082;28;20033;-67
2022/05/26 13:09:47;;;;;;;0.40;0.20;;;23.00;49.80;;;;;;5057313;28;20054;-67
2022/05/26 13:12:27;;;;;;;0.30;0.30;;;23.00;49.30;;;;;;5048881;28;20072;-67
2022/05/26 13:14:59;;;;;;;2.50;0.30;;;23.00;48.90;;;;;;5053898;28;20040;-67
2022/05/26 13:17:27;;;;;;;0.57;0.22;;;23.00;48.50;;;;;;5053744;28;20025;-67
2022/05/26 13:20:00;;;;;;;0.80;0.20;;;23.00;49.00;;;;;;5052282;28;20041;-67
2022/05/26 13:22:32;;;;;;;0.40;0.30;;;23.00;50.00;;;;;;5055268;28;20037;-67
2022/05/26 13:25:08;;;;;;;0.30;0.20;;;23.00;49.60;;;;;;5056661;28;20115;-67
2022/05/26 13:27:47;;;;;;;0.95;0.20;;;23.00;48.20;;;;;;5054469;28;20523;-67
2022/05/26 13:33:09;;;;;;;1.17;0.30;;;22.90;49.20;;;;;;5053529;28;20455;-67
2022/05/26 13:36:05;;;;;;;1.00;0.30;;;22.80;50.00;;;;;;5052894;28;20087;-67
2022/05/26 13:38:35;;;;;;;3.22;0.40;;;22.80;49.20;;;;;;5036150;28;20345;-64
2022/05/26 13:41:03;;;;;;;0.60;0.20;;;22.80;50.60;;;;;;5055028;28;20071;-67
2022/05/26 13:43:32;;;;;;;1.00;0.20;;;22.80;50.50;;;;;;5054877;28;20036;-67
2022/05/26 13:45:59;;;;;;;0.52;0.20;;;22.80;50.50;;;;;;5053737;28;20032;-67
2022/05/26 13:48:42;;;;;;;0.93;0.22;;;22.80;51.10;;;;;;5051681;28;20033;-67
2022/05/26 13:51:17;;;;;;;1.10;0.40;;;22.80;50.50;;;;;;5055598;28;20040;-67
2022/05/26 13:53:45;;;;;;;0.25;0.15;;;22.90;50.90;;;;;;5054704;28;20053;-67